createdAt,value
2019-03-18T00:00:53.885Z,1.90
2019-03-18T00:03:22.312Z,1.90
2019-03-18T00:06:07.442Z,1.80
2019-03-18T00:08:42.939Z,1.80
2019-03-18T00:11:39.316Z,1.80
2019-03-18T00:14:12.850Z,1.80
2019-03-18T00:16:44.248Z,1.80
2019-03-18T00:19:14.889Z,1.80
2019-03-18T00:21:44.743Z,1.80
2019-03-18T00:24:15.776Z,1.80
2019-03-18T00:26:46.267Z,1.70
2019-03-18T00:29:15.693Z,1.70
2019-03-18T00:31:46.001Z,1.60
2019-03-18T00:34:15.463Z,1.60
2019-03-18T00:36:45.058Z,1.50
2019-03-18T00:39:14.614Z,1.40
2019-03-18T00:41:45.396Z,1.40
2019-03-18T00:44:15.607Z,1.40
2019-03-18T00:46:45.779Z,1.50
2019-03-18T00:49:15.416Z,1.50
2019-03-18T00:51:45.044Z,1.50
2019-03-18T00:54:15.196Z,1.50
2019-03-18T00:56:45.669Z,1.50
2019-03-18T00:59:24.545Z,1.40
2019-03-18T01:02:01.347Z,1.40
2019-03-18T01:04:32.351Z,1.40
2019-03-18T01:07:09.036Z,1.40
2019-03-18T01:09:43.424Z,1.40
2019-03-18T01:12:15.060Z,1.60
2019-03-18T01:14:45.270Z,1.70
2019-03-18T01:17:15.204Z,1.80
2019-03-18T01:19:45.431Z,1.80
2019-03-18T01:22:20.881Z,1.80
2019-03-18T01:24:49.340Z,1.70
2019-03-18T01:27:17.780Z,1.70
2019-03-18T01:29:46.263Z,1.70
2019-03-18T01:32:15.823Z,1.70
2019-03-18T01:34:46.332Z,1.60
2019-03-18T01:37:15.576Z,1.70
2019-03-18T01:39:44.968Z,1.70
2019-03-18T01:42:16.797Z,1.70
2019-03-18T01:44:49.882Z,1.70
2019-03-18T01:47:18.340Z,1.70
2019-03-18T01:49:46.774Z,1.70
2019-03-18T01:52:15.207Z,1.70
2019-03-18T01:54:45.189Z,1.70
2019-03-18T01:57:15.617Z,1.60
2019-03-18T01:59:45.836Z,1.60
2019-03-18T02:02:15.204Z,1.60
2019-03-18T02:04:44.518Z,1.70
2019-03-18T02:07:14.717Z,1.70
2019-03-18T02:09:44.338Z,1.70
2019-03-18T02:12:22.398Z,1.70
2019-03-18T02:14:51.226Z,1.70
2019-03-18T02:17:19.663Z,1.70
2019-03-18T02:19:48.104Z,1.80
2019-03-18T02:22:16.548Z,1.80
2019-03-18T02:25:06.248Z,1.80
2019-03-18T02:27:43.911Z,1.80
2019-03-18T02:30:19.113Z,1.80
2019-03-18T02:32:47.725Z,1.80
2019-03-18T02:35:16.353Z,1.80
2019-03-18T02:37:55.180Z,1.70
2019-03-18T02:40:23.339Z,1.70
2019-03-18T02:42:51.757Z,1.70
2019-03-18T02:45:20.211Z,1.70
2019-03-18T02:47:48.710Z,1.70
2019-03-18T02:50:17.237Z,1.80
2019-03-18T02:52:46.289Z,1.80
2019-03-18T02:55:14.842Z,1.90
2019-03-18T02:57:45.415Z,1.90
2019-03-18T03:00:16.382Z,2.00
2019-03-18T03:02:45.307Z,2.00
2019-03-18T03:05:19.175Z,2.10
2019-03-18T03:07:47.613Z,2.10
2019-03-18T03:10:16.368Z,2.10
2019-03-18T03:12:45.371Z,2.10
2019-03-18T03:15:15.550Z,2.10
2019-03-18T03:17:44.752Z,2.00
2019-03-18T03:20:13.998Z,2.00
2019-03-18T03:22:44.598Z,2.10
2019-03-18T03:25:13.878Z,2.10
2019-03-18T03:27:43.519Z,2.20
2019-03-18T03:30:15.958Z,2.20
2019-03-18T03:32:45.205Z,2.20
2019-03-18T03:35:20.500Z,2.20
2019-03-18T03:37:49.036Z,2.20
2019-03-18T03:40:17.526Z,2.20
2019-03-18T03:42:46.548Z,2.20
2019-03-18T03:45:16.151Z,2.20
2019-03-18T03:47:45.914Z,2.20
2019-03-18T03:50:15.547Z,2.20
2019-03-18T03:52:45.730Z,2.20
2019-03-18T03:55:14.886Z,2.20
2019-03-18T03:57:44.487Z,2.20
2019-03-18T04:00:15.323Z,2.20
2019-03-18T04:02:44.407Z,2.20
2019-03-18T04:05:22.779Z,2.20
2019-03-18T04:07:51.559Z,2.10
2019-03-18T04:10:19.973Z,2.00
2019-03-18T04:12:48.425Z,2.10
2019-03-18T04:15:17.075Z,2.10
2019-03-18T04:17:45.707Z,2.20
2019-03-18T04:20:22.576Z,2.20
2019-03-18T04:22:51.095Z,2.30
2019-03-18T04:25:22.990Z,2.30
2019-03-18T04:27:51.441Z,2.30
2019-03-18T04:30:19.960Z,2.40
2019-03-18T04:32:48.380Z,2.40
2019-03-18T04:35:17.033Z,2.40
2019-03-18T04:37:46.742Z,2.50
2019-03-18T04:40:19.888Z,2.50
2019-03-18T04:42:48.410Z,2.50
2019-03-18T04:45:16.859Z,2.50
2019-03-18T04:47:45.792Z,2.50
2019-03-18T04:50:21.393Z,2.50
2019-03-18T04:52:49.945Z,2.50
2019-03-18T04:55:18.385Z,2.50
2019-03-18T04:57:46.815Z,2.50
2019-03-18T05:00:15.685Z,2.50
2019-03-18T05:02:44.889Z,2.60
2019-03-18T05:05:15.763Z,2.60
2019-03-18T05:07:44.633Z,2.60
2019-03-18T05:10:13.843Z,2.60
2019-03-18T05:12:44.008Z,2.60
2019-03-18T05:15:14.495Z,2.60
2019-03-18T05:17:44.544Z,2.70
2019-03-18T05:20:14.453Z,2.70
2019-03-18T05:22:44.445Z,2.70
2019-03-18T05:25:14.808Z,2.70
2019-03-18T05:27:54.764Z,2.70
2019-03-18T05:30:23.308Z,2.70
2019-03-18T05:32:51.828Z,2.70
2019-03-18T05:35:20.347Z,2.80
2019-03-18T05:37:48.805Z,2.80
2019-03-18T05:40:17.244Z,2.80
2019-03-18T05:42:45.672Z,2.80
2019-03-18T05:45:15.744Z,2.80
2019-03-18T05:47:56.426Z,2.80
2019-03-18T05:50:34.642Z,2.80
2019-03-18T05:53:08.377Z,2.80
2019-03-18T05:55:45.167Z,2.80
2019-03-18T05:58:24.394Z,2.80
2019-03-18T06:00:52.899Z,2.80
2019-03-18T06:03:21.407Z,2.90
2019-03-18T06:05:49.853Z,2.90
2019-03-18T06:08:19.224Z,2.90
2019-03-18T06:10:49.571Z,2.90
2019-03-18T06:13:18.670Z,2.90
2019-03-18T06:15:48.324Z,3.00
2019-03-18T06:18:16.781Z,2.90
2019-03-18T06:20:45.578Z,3.00
2019-03-18T06:23:14.927Z,3.00
2019-03-18T06:25:44.988Z,3.00
2019-03-18T06:28:14.974Z,3.00
2019-03-18T06:30:47.684Z,3.00
2019-03-18T06:33:16.482Z,3.00
2019-03-18T06:35:46.729Z,3.10
2019-03-18T06:38:15.624Z,3.10
2019-03-18T06:40:46.092Z,3.10
2019-03-18T06:43:18.170Z,3.10
2019-03-18T06:45:49.251Z,3.20
2019-03-18T06:48:19.151Z,3.30
2019-03-18T06:50:49.087Z,3.40
2019-03-18T06:53:21.765Z,3.50
2019-03-18T06:55:51.256Z,3.60
2019-03-18T06:58:19.924Z,3.60
2019-03-18T07:00:48.332Z,3.50
2019-03-18T07:03:22.998Z,3.50
2019-03-18T07:05:51.830Z,3.50
2019-03-18T07:08:21.818Z,3.50
2019-03-18T07:10:53.467Z,3.60
2019-03-18T07:13:22.014Z,3.60
2019-03-18T07:15:52.009Z,3.60
2019-03-18T07:18:20.737Z,3.60
2019-03-18T07:20:50.554Z,3.70
2019-03-18T07:23:20.177Z,3.70
2019-03-18T07:25:51.127Z,3.70
2019-03-18T07:28:19.547Z,3.70
2019-03-18T07:30:48.045Z,3.70
2019-03-18T07:33:16.469Z,3.70
2019-03-18T07:35:45.874Z,3.70
2019-03-18T07:38:15.727Z,3.80
2019-03-18T07:40:46.214Z,3.80
2019-03-18T07:43:16.351Z,3.80
2019-03-18T07:45:46.443Z,3.90
2019-03-18T07:48:30.014Z,4.00
2019-03-18T07:50:48.237Z,4.10
2019-03-18T07:53:18.343Z,4.20
2019-03-18T07:55:46.909Z,4.20
2019-03-18T07:58:34.109Z,4.30
2019-03-18T08:01:29.806Z,4.30
2019-03-18T08:04:14.789Z,4.20
2019-03-18T08:06:45.167Z,4.30
2019-03-18T08:09:15.456Z,4.40
2019-03-18T08:11:44.452Z,4.50
2019-03-18T08:14:16.079Z,4.60
2019-03-18T08:16:46.462Z,4.50
2019-03-18T08:19:16.686Z,4.50
2019-03-18T08:22:01.137Z,4.50
2019-03-18T08:24:31.342Z,4.60
2019-03-18T08:27:14.673Z,4.60
2019-03-18T08:29:45.876Z,4.60
2019-03-18T08:32:15.859Z,4.70
2019-03-18T08:34:45.643Z,4.60
2019-03-18T08:37:14.785Z,4.50
2019-03-18T08:39:49.939Z,4.60
2019-03-18T08:42:18.425Z,4.60
2019-03-18T08:44:46.865Z,4.70
2019-03-18T08:47:16.057Z,4.80
2019-03-18T08:49:45.506Z,4.90
2019-03-18T08:52:16.183Z,5.00
2019-03-18T08:54:45.877Z,5.10
2019-03-18T08:57:15.371Z,5.00
2019-03-18T08:59:45.159Z,5.00
2019-03-18T09:02:14.890Z,5.00
2019-03-18T09:04:45.208Z,5.10
2019-03-18T09:07:15.609Z,5.20
2019-03-18T09:09:45.612Z,5.30
2019-03-18T09:12:15.474Z,5.60
2019-03-18T09:14:44.877Z,6.40
2019-03-18T09:17:14.210Z,7.00
2019-03-18T09:19:46.705Z,7.00
2019-03-18T09:22:16.530Z,6.80
2019-03-18T09:24:46.198Z,6.60
2019-03-18T09:27:16.578Z,6.40
2019-03-18T09:29:46.220Z,6.40
2019-03-18T09:32:15.430Z,6.30
2019-03-18T09:34:45.593Z,6.00
2019-03-18T09:37:14.367Z,5.80
2019-03-18T09:39:44.124Z,5.60
2019-03-18T09:42:14.549Z,5.50
2019-03-18T09:44:44.548Z,5.60
2019-03-18T09:47:14.500Z,5.50
2019-03-18T09:49:44.314Z,5.60
2019-03-18T09:52:15.563Z,5.60
2019-03-18T09:54:44.590Z,5.60
2019-03-18T09:57:25.422Z,5.80
2019-03-18T09:59:45.537Z,5.90
2019-03-18T10:02:14.793Z,6.00
2019-03-18T10:04:43.759Z,6.10
2019-03-18T10:07:13.202Z,6.10
2019-03-18T10:09:43.213Z,5.60
2019-03-18T10:12:13.271Z,5.50
2019-03-18T10:15:07.418Z,5.40
2019-03-18T10:17:43.104Z,5.30
2019-03-18T10:20:14.093Z,5.30
2019-03-18T10:22:43.361Z,5.40
2019-03-18T10:25:14.255Z,5.40
2019-03-18T10:27:43.609Z,5.50
2019-03-18T10:30:16.277Z,5.60
2019-03-18T10:32:45.352Z,5.70
2019-03-18T10:35:14.737Z,5.80
2019-03-18T10:37:44.962Z,6.00
2019-03-18T10:40:14.609Z,6.00
2019-03-18T10:42:44.567Z,6.00
2019-03-18T10:45:14.501Z,5.90
2019-03-18T10:47:45.156Z,6.10
2019-03-18T10:50:18.142Z,6.20
2019-03-18T10:52:46.646Z,6.30
2019-03-18T10:55:15.732Z,6.40
2019-03-18T10:57:45.586Z,6.60
2019-03-18T11:00:18.820Z,6.90
2019-03-18T11:02:47.321Z,7.10
2019-03-18T11:05:15.867Z,7.00
2019-03-18T11:07:45.235Z,7.00
2019-03-18T11:10:15.701Z,7.30
2019-03-18T11:12:45.529Z,7.40
2019-03-18T11:15:15.877Z,7.40
2019-03-18T11:17:44.704Z,7.50
2019-03-18T11:20:15.272Z,7.80
2019-03-18T11:22:44.464Z,7.90
2019-03-18T11:25:14.727Z,8.00
2019-03-18T11:27:45.073Z,8.00
2019-03-18T11:30:17.240Z,7.80
2019-03-18T11:32:45.669Z,8.00
2019-03-18T11:35:15.040Z,7.90
2019-03-18T11:37:44.316Z,8.00
2019-03-18T11:40:15.805Z,7.80
2019-03-18T11:42:44.909Z,7.30
2019-03-18T11:45:14.994Z,7.20
2019-03-18T11:47:44.635Z,7.30
2019-03-18T11:50:15.636Z,7.30
2019-03-18T11:52:45.703Z,7.30
2019-03-18T11:55:16.851Z,7.60
2019-03-18T11:57:45.889Z,7.80
2019-03-18T12:00:16.843Z,7.70
2019-03-18T12:02:45.300Z,7.60
2019-03-18T12:05:16.429Z,7.70
2019-03-18T12:07:45.203Z,7.60
2019-03-18T12:10:16.407Z,7.70
2019-03-18T12:12:45.493Z,8.10
2019-03-18T12:15:15.678Z,8.40
2019-03-18T12:17:44.381Z,8.70
2019-03-18T12:20:24.423Z,8.90
2019-03-18T12:22:45.480Z,8.90
2019-03-18T12:25:15.161Z,8.70
2019-03-18T12:27:44.871Z,8.90
2019-03-18T12:30:19.108Z,9.20
2019-03-18T12:32:47.819Z,9.10
2019-03-18T12:35:16.320Z,9.30
2019-03-18T12:37:45.647Z,9.10
2019-03-18T12:40:17.621Z,9.00
2019-03-18T12:42:46.394Z,9.30
2019-03-18T12:45:18.095Z,9.00
2019-03-18T12:47:46.721Z,8.80
2019-03-18T12:50:36.318Z,8.80
2019-03-18T12:52:50.496Z,8.50
2019-03-18T12:55:19.010Z,8.30
2019-03-18T12:57:47.491Z,8.60
2019-03-18T13:00:18.755Z,8.70
2019-03-18T13:02:47.325Z,8.40
2019-03-18T13:05:16.152Z,8.20
2019-03-18T13:07:45.240Z,8.00
2019-03-18T13:10:21.010Z,8.00
2019-03-18T13:12:47.860Z,7.90
2019-03-18T13:15:18.406Z,7.90
2019-03-18T13:17:46.923Z,7.50
2019-03-18T13:20:16.781Z,7.30
2019-03-18T13:22:45.632Z,7.20
2019-03-18T13:25:15.562Z,7.10
2019-03-18T13:28:23.062Z,7.20
2019-03-18T13:30:51.597Z,7.30
2019-03-18T13:33:20.058Z,7.50
2019-03-18T13:35:48.556Z,7.90
2019-03-18T13:38:16.990Z,8.20
2019-03-18T13:40:46.082Z,8.30
2019-03-18T13:43:16.449Z,8.60
2019-03-18T13:45:55.129Z,8.80
2019-03-18T13:48:16.429Z,8.90
2019-03-18T13:50:45.327Z,9.00
2019-03-18T13:53:28.424Z,8.80
2019-03-18T13:56:04.813Z,8.80
2019-03-18T13:58:54.308Z,9.00
2019-03-18T14:01:23.054Z,9.00
2019-03-18T14:03:51.508Z,9.10
2019-03-18T14:06:19.933Z,9.30
2019-03-18T14:08:49.514Z,9.50
2019-03-18T14:11:17.967Z,9.50
2019-03-18T14:13:46.466Z,9.20
2019-03-18T14:16:42.687Z,9.20
2019-03-18T14:19:14.207Z,9.10
2019-03-18T14:21:45.788Z,8.90
2019-03-18T14:24:15.785Z,9.00
2019-03-18T14:26:46.380Z,9.00
2019-03-18T14:29:15.954Z,8.70
2019-03-18T14:31:44.865Z,8.70
2019-03-18T14:34:15.464Z,8.50
2019-03-18T14:36:44.908Z,8.50
2019-03-18T14:39:14.164Z,8.40
2019-03-18T14:41:43.490Z,8.10
2019-03-18T14:44:13.954Z,7.70
2019-03-18T14:46:44.544Z,7.50
2019-03-18T14:49:13.898Z,7.30
2019-03-18T14:51:51.762Z,7.10
2019-03-18T14:54:20.352Z,6.90
2019-03-18T14:56:48.813Z,6.70
2019-03-18T14:59:17.232Z,6.50
2019-03-18T15:01:45.688Z,6.50
2019-03-18T15:04:16.111Z,6.60
2019-03-18T15:06:45.435Z,6.70
2019-03-18T15:09:15.547Z,6.80
2019-03-18T15:11:45.887Z,7.00
2019-03-18T15:14:16.289Z,6.90
2019-03-18T15:16:45.023Z,7.00
2019-03-18T15:19:14.942Z,7.00
2019-03-18T15:21:46.367Z,7.10
2019-03-18T15:24:17.304Z,7.20
2019-03-18T15:26:46.562Z,7.30
2019-03-18T15:29:16.705Z,7.40
2019-03-18T15:31:45.718Z,7.60
2019-03-18T15:34:15.051Z,7.80
2019-03-18T15:36:45.057Z,7.80
2019-03-18T15:39:14.969Z,7.90
2019-03-18T15:41:45.075Z,7.90
2019-03-18T15:44:15.683Z,8.10
2019-03-18T15:46:44.690Z,8.20
2019-03-18T15:49:15.848Z,8.20
2019-03-18T15:51:45.749Z,8.20
2019-03-18T15:54:25.477Z,8.10
2019-03-18T15:56:53.910Z,8.00
2019-03-18T15:59:43.698Z,7.90
2019-03-18T16:02:33.255Z,7.80
2019-03-18T16:05:16.372Z,7.60
2019-03-18T16:07:44.925Z,7.30
2019-03-18T16:10:17.479Z,7.10
2019-03-18T16:12:46.014Z,7.00
2019-03-18T16:15:16.614Z,6.80
2019-03-18T16:17:45.617Z,6.60
2019-03-18T16:20:16.029Z,6.40
2019-03-18T16:22:44.680Z,6.40
2019-03-18T16:25:27.082Z,6.40
2019-03-18T16:27:55.512Z,6.50
2019-03-18T16:30:24.042Z,6.40
2019-03-18T16:32:52.487Z,6.40
2019-03-18T16:35:20.997Z,6.30
2019-03-18T16:37:49.640Z,5.90
2019-03-18T16:40:22.795Z,5.60
2019-03-18T16:42:51.258Z,5.40
2019-03-18T16:45:20.241Z,5.40
2019-03-18T16:47:48.716Z,5.30
2019-03-18T16:50:20.313Z,5.30
2019-03-18T16:52:48.793Z,5.30
2019-03-18T16:55:17.409Z,5.30
2019-03-18T16:57:49.346Z,5.30
2019-03-18T17:00:23.021Z,5.30
2019-03-18T17:02:51.430Z,5.40
2019-03-18T17:05:19.884Z,5.30
2019-03-18T17:07:48.311Z,5.20
2019-03-18T17:10:16.992Z,5.20
2019-03-18T17:12:45.722Z,5.20
2019-03-18T17:15:20.679Z,5.20
2019-03-18T17:17:49.095Z,5.20
2019-03-18T17:20:17.763Z,5.20
2019-03-18T17:22:50.422Z,5.10
2019-03-18T17:25:36.365Z,5.00
2019-03-18T17:28:10.985Z,4.90
2019-03-18T17:30:52.247Z,4.90
2019-03-18T17:33:20.947Z,4.80
2019-03-18T17:36:19.316Z,4.70
2019-03-18T17:38:47.778Z,4.60
2019-03-18T17:41:17.475Z,4.50
2019-03-18T17:43:45.988Z,4.40
2019-03-18T17:46:16.097Z,4.40
2019-03-18T17:48:45.577Z,4.30
2019-03-18T17:51:15.181Z,4.30
2019-03-18T17:53:45.593Z,4.20
2019-03-18T17:56:14.882Z,4.10
2019-03-18T17:58:46.135Z,4.00
2019-03-18T18:01:15.436Z,3.90
2019-03-18T18:04:15.543Z,3.80
2019-03-18T18:06:44.765Z,3.70
2019-03-18T18:09:15.502Z,3.60
2019-03-18T18:11:45.752Z,3.60
2019-03-18T18:14:15.981Z,3.50
2019-03-18T18:16:45.976Z,3.30
2019-03-18T18:19:17.613Z,3.20
2019-03-18T18:21:46.120Z,3.10
2019-03-18T18:24:15.016Z,3.10
2019-03-18T18:26:45.879Z,3.10
2019-03-18T18:29:14.471Z,3.10
2019-03-18T18:31:44.654Z,3.10
2019-03-18T18:34:14.619Z,3.10
2019-03-18T18:36:56.237Z,3.20
2019-03-18T18:39:24.981Z,3.20
2019-03-18T18:41:55.320Z,3.20
2019-03-18T18:44:23.885Z,3.30
2019-03-18T18:46:52.313Z,3.30
2019-03-18T18:49:20.937Z,3.30
2019-03-18T18:51:49.452Z,3.40
2019-03-18T18:54:18.330Z,3.40
2019-03-18T18:56:46.770Z,3.40
2019-03-18T18:59:15.698Z,3.40
2019-03-18T19:01:45.727Z,3.40
2019-03-18T19:04:15.026Z,3.50
2019-03-18T19:06:45.054Z,3.50
2019-03-18T19:09:14.235Z,3.50
2019-03-18T19:11:44.729Z,3.50
2019-03-18T19:14:15.475Z,3.50
2019-03-18T19:16:45.084Z,3.60
2019-03-18T19:19:41.417Z,3.60
2019-03-18T19:22:13.864Z,3.60
2019-03-18T19:25:17.268Z,3.60
2019-03-18T19:27:46.135Z,3.60
2019-03-18T19:30:22.416Z,3.60
2019-03-18T19:32:50.931Z,3.60
2019-03-18T19:35:19.455Z,3.60
2019-03-18T19:37:47.970Z,3.60
2019-03-18T19:40:21.031Z,3.60
2019-03-18T19:42:49.503Z,3.60
2019-03-18T19:45:18.076Z,3.60
2019-03-18T19:47:46.550Z,3.60
2019-03-18T19:50:24.199Z,3.60
2019-03-18T19:52:52.690Z,3.60
2019-03-18T19:55:21.145Z,3.60
2019-03-18T19:57:49.898Z,3.60
2019-03-18T20:00:23.290Z,3.60
2019-03-18T20:02:51.716Z,3.60
2019-03-18T20:05:21.396Z,3.60
2019-03-18T20:07:49.836Z,3.60
2019-03-18T20:10:19.383Z,3.60
2019-03-18T20:12:48.099Z,3.60
2019-03-18T20:15:19.784Z,3.60
2019-03-18T20:17:48.349Z,3.60
2019-03-18T20:20:19.158Z,3.60
2019-03-18T20:22:47.587Z,3.60
2019-03-18T20:25:16.225Z,3.60
2019-03-18T20:27:45.861Z,3.50
2019-03-18T20:30:21.447Z,3.50
2019-03-18T20:32:50.285Z,3.60
2019-03-18T20:35:22.914Z,3.60
2019-03-18T20:37:52.099Z,3.50
2019-03-18T20:40:22.753Z,3.50
2019-03-18T20:42:51.206Z,3.50
2019-03-18T20:45:24.913Z,3.50
2019-03-18T20:47:53.572Z,3.50
2019-03-18T20:50:22.940Z,3.60
2019-03-18T20:52:51.492Z,3.60
2019-03-18T20:55:20.474Z,3.60
2019-03-18T20:57:48.947Z,3.60
2019-03-18T21:00:24.948Z,3.60
2019-03-18T21:02:53.396Z,3.60
2019-03-18T21:05:21.889Z,3.60
2019-03-18T21:07:50.324Z,3.60
2019-03-18T21:10:21.208Z,3.60
2019-03-18T21:12:49.672Z,3.60
2019-03-18T21:15:21.068Z,3.70
2019-03-18T21:17:49.524Z,3.70
2019-03-18T21:20:19.296Z,3.80
2019-03-18T21:22:47.740Z,3.80
2019-03-18T21:25:16.175Z,3.80
2019-03-18T21:27:44.837Z,3.80
2019-03-18T21:30:17.296Z,3.80
2019-03-18T21:32:45.825Z,3.90
2019-03-18T21:35:14.358Z,3.90
2019-03-18T21:37:43.844Z,3.90
2019-03-18T21:40:19.629Z,3.90
2019-03-18T21:42:48.410Z,3.80
2019-03-18T21:45:19.126Z,3.80
2019-03-18T21:47:47.858Z,3.80
2019-03-18T21:50:16.854Z,3.80
2019-03-18T21:52:46.133Z,3.70
2019-03-18T21:55:17.023Z,3.80
2019-03-18T21:57:45.424Z,3.80
2019-03-18T22:00:20.683Z,3.70
2019-03-18T22:02:49.807Z,3.70
2019-03-18T22:05:18.381Z,3.70
2019-03-18T22:07:52.271Z,3.70
2019-03-18T22:10:21.131Z,3.60
2019-03-18T22:12:49.686Z,3.60
2019-03-18T22:15:19.022Z,3.60
2019-03-18T22:17:49.888Z,3.50
2019-03-18T22:20:21.889Z,3.50
2019-03-18T22:22:52.280Z,3.40
2019-03-18T22:25:20.801Z,3.30
2019-03-18T22:27:54.397Z,3.30
2019-03-18T22:30:23.081Z,3.20
2019-03-18T22:32:52.727Z,3.10
2019-03-18T22:35:21.317Z,3.10
2019-03-18T22:37:50.084Z,3.00
2019-03-18T22:40:19.938Z,3.00
2019-03-18T22:42:53.035Z,2.90
2019-03-18T22:45:21.673Z,2.90
2019-03-18T22:47:50.516Z,2.90
2019-03-18T22:50:20.347Z,2.90
2019-03-18T22:53:10.912Z,2.90
2019-03-18T22:55:58.999Z,2.90
2019-03-18T22:58:29.558Z,2.90
2019-03-18T23:01:13.132Z,2.90
2019-03-18T23:03:49.772Z,2.90
2019-03-18T23:06:18.234Z,3.00
2019-03-18T23:08:49.004Z,3.00
2019-03-18T23:11:17.701Z,3.00
2019-03-18T23:13:46.181Z,3.00
2019-03-18T23:16:15.180Z,3.10
2019-03-18T23:18:57.561Z,3.10
2019-03-18T23:21:27.809Z,3.10
2019-03-18T23:23:57.861Z,3.10
2019-03-18T23:26:37.164Z,3.10
2019-03-18T23:29:12.768Z,3.10
2019-03-18T23:31:44.482Z,3.10
2019-03-18T23:34:14.413Z,3.10
2019-03-18T23:37:14.563Z,3.10
2019-03-18T23:39:45.412Z,3.20
2019-03-18T23:42:15.464Z,3.10
2019-03-18T23:44:44.414Z,3.20
2019-03-18T23:47:21.060Z,3.20
2019-03-18T23:49:49.749Z,3.20
2019-03-18T23:52:27.761Z,3.10
2019-03-18T23:55:19.114Z,3.10
2019-03-18T23:57:43.145Z,3.10
